Time;durP1;ratioP1;P1;durP2;ratioP2;P2;SDS_P1;SDS_P2;PMS_P1;PMS_P2;Temp;Humidity;BMP_temperature;BMP_pressure;BME280_temperature;BME280_humidity;BME280_pressure;Samples;Min_cycle;Max_cycle;Signal;HPM_P1;HPM_P2
2023/06/07 00:00:11;;;;;;;2.80;1.20;;;22.00;61.20;;;;;;7400110;19;19935;-79
2023/06/07 00:02:43;;;;;;;2.90;0.93;;;22.00;61.20;;;;;;7401660;19;20614;-79
2023/06/07 00:05:12;;;;;;;3.17;1.25;;;21.90;61.20;;;;;;7401391;19;20489;-79
2023/06/07 00:07:41;;;;;;;3.13;1.10;;;21.90;61.20;;;;;;7401795;19;19922;-79
2023/06/07 00:10:11;;;;;;;3.75;0.90;;;21.90;61.30;;;;;;7401388;19;20321;-78
2023/06/07 00:12:40;;;;;;;2.90;1.10;;;21.90;61.40;;;;;;7400487;19;19926;-79
2023/06/07 00:15:10;;;;;;;3.08;1.13;;;21.90;61.40;;;;;;7402564;19;19928;-78
2023/06/07 00:17:44;;;;;;;2.47;1.08;;;21.90;61.50;;;;;;7399334;19;19914;-79
2023/06/07 00:20:14;;;;;;;3.03;1.08;;;21.80;61.40;;;;;;7400952;19;20576;-78
2023/06/07 00:22:44;;;;;;;2.55;0.90;;;21.80;61.50;;;;;;7400560;19;20385;-78
2023/06/07 00:25:13;;;;;;;2.53;0.93;;;21.80;61.50;;;;;;7401535;19;20452;-79
2023/06/07 00:27:42;;;;;;;2.53;0.90;;;21.80;61.60;;;;;;7400899;19;20370;-78
2023/06/07 00:30:12;;;;;;;3.10;0.85;;;21.80;61.70;;;;;;7401089;19;19922;-79
2023/06/07 00:32:44;;;;;;;4.00;0.82;;;21.80;61.70;;;;;;7398383;19;20014;-79
2023/06/07 00:35:13;;;;;;;3.58;1.08;;;21.80;61.70;;;;;;7400883;19;20412;-79
2023/06/07 00:37:44;;;;;;;2.85;1.08;;;21.80;61.70;;;;;;7400311;19;19986;-79
2023/06/07 00:40:14;;;;;;;2.78;0.93;;;21.70;61.70;;;;;;7401008;19;20432;-79
2023/06/07 00:42:43;;;;;;;3.08;1.23;;;21.70;61.70;;;;;;7397497;19;19915;-79
2023/06/07 00:45:13;;;;;;;2.50;0.98;;;21.70;61.70;;;;;;7401235;19;20352;-79
2023/06/07 00:47:45;;;;;;;2.67;0.85;;;21.70;61.80;;;;;;7399853;19;19943;-79
2023/06/07 00:50:14;;;;;;;3.15;1.15;;;21.70;61.80;;;;;;7399672;19;19926;-79
2023/06/07 00:52:43;;;;;;;2.60;0.77;;;21.60;61.80;;;;;;7400679;19;19988;-79
2023/06/07 00:55:15;;;;;;;2.65;0.70;;;21.70;61.90;;;;;;7399578;19;20672;-79
2023/06/07 00:57:44;;;;;;;2.28;1.00;;;21.60;61.90;;;;;;7397155;19;19943;-79
2023/06/07 01:00:16;;;;;;;2.45;0.60;;;21.60;61.90;;;;;;7399005;19;19927;-79
2023/06/07 01:02:49;;;;;;;2.85;0.80;;;21.60;62.00;;;;;;7397627;19;19940;-79
2023/06/07 01:05:20;;;;;;;3.13;0.80;;;21.60;62.00;;;;;;7398031;19;20386;-79
2023/06/07 01:07:49;;;;;;;2.70;0.98;;;21.60;62.00;;;;;;7399422;19;19926;-79
2023/06/07 01:10:19;;;;;;;2.55;1.02;;;21.60;62.10;;;;;;7400177;19;19935;-79
2023/06/07 01:12:53;;;;;;;2.75;0.80;;;21.60;62.10;;;;;;7401208;19;20616;-79
2023/06/07 01:15:23;;;;;;;3.55;1.00;;;21.60;62.10;;;;;;7400635;19;19940;-79
2023/06/07 01:17:57;;;;;;;2.67;0.90;;;21.50;62.10;;;;;;7397146;19;20287;-79
2023/06/07 01:20:29;;;;;;;1.55;0.73;;;21.50;62.20;;;;;;7398064;19;19926;-79
2023/06/07 01:23:01;;;;;;;2.45;0.95;;;21.50;62.20;;;;;;7398466;19;19946;-79
2023/06/07 01:25:32;;;;;;;2.88;0.60;;;21.50;62.30;;;;;;7391767;19;20289;-78
2023/06/07 01:28:03;;;;;;;2.22;0.90;;;21.50;62.30;;;;;;7398975;19;19923;-79
2023/06/07 01:30:33;;;;;;;3.63;1.02;;;21.50;62.30;;;;;;7398212;19;19922;-78
2023/06/07 01:33:06;;;;;;;3.55;1.00;;;21.50;62.30;;;;;;7399612;19;19919;-78
2023/06/07 01:35:37;;;;;;;2.35;0.82;;;21.40;62.30;;;;;;7396598;19;19922;-78
2023/06/07 01:38:06;;;;;;;2.85;0.70;;;21.40;62.30;;;;;;7396669;19;19922;-78
2023/06/07 01:40:38;;;;;;;;;;;21.40;62.30;;;;;;7401957;19;19982;-78
2023/06/07 01:43:07;;;;;;;3.05;0.90;;;21.40;62.30;;;;;;7394373;19;20051;-78
2023/06/07 01:45:37;;;;;;;2.28;0.65;;;21.40;62.40;;;;;;7404599;19;19922;-79
2023/06/07 01:48:07;;;;;;;;;;;21.40;62.40;;;;;;7405542;19;19926;-79
2023/06/07 01:50:36;;;;;;;2.83;0.60;;;21.40;62.50;;;;;;7400014;19;19922;-78
2023/06/07 01:53:05;;;;;;;3.38;1.10;;;21.40;62.50;;;;;;7405389;19;19923;-79
2023/06/07 01:55:34;;;;;;;4.35;1.17;;;21.40;62.50;;;;;;7404290;19;19925;-79
2023/06/07 01:58:14;;;;;;;2.47;0.93;;;21.30;62.50;;;;;;7405863;19;19923;-79
2023/06/07 02:00:53;;;;;;;2.47;0.73;;;21.30;62.50;;;;;;7405802;19;19922;-79
2023/06/07 02:03:30;;;;;;;2.15;0.80;;;21.30;63.10;;;;;;7405386;19;19935;-78
2023/06/07 02:06:04;;;;;;;2.72;0.80;;;21.30;62.60;;;;;;7403755;19;19926;-79
2023/06/07 02:08:37;;;;;;;1.92;0.65;;;21.30;63.10;;;;;;7404831;19;20329;-78
2023/06/07 02:11:07;;;;;;;2.28;1.00;;;21.30;62.60;;;;;;7405997;19;19942;-79
2023/06/07 02:13:43;;;;;;;2.30;0.77;;;21.30;62.60;;;;;;7405773;19;19986;-78
2023/06/07 02:16:12;;;;;;;;;;;21.30;62.70;;;;;;7408292;19;19927;-78
2023/06/07 02:18:43;;;;;;;3.28;0.85;;;21.30;62.60;;;;;;7405374;19;19926;-79
2023/06/07 02:21:12;;;;;;;3.20;0.90;;;21.30;62.60;;;;;;7403663;19;20329;-78
2023/06/07 02:23:41;;;;;;;2.38;0.77;;;21.30;62.70;;;;;;7402230;19;19952;-79
2023/06/07 02:26:10;;;;;;;2.65;0.75;;;21.30;62.70;;;;;;7402116;19;19951;-79
2023/06/07 02:28:42;;;;;;;2.92;0.90;;;21.30;62.70;;;;;;7400575;19;19926;-79
2023/06/07 02:31:11;;;;;;;1.95;0.70;;;21.20;62.70;;;;;;7401748;19;19982;-79
2023/06/07 02:33:40;;;;;;;2.58;0.70;;;21.30;62.80;;;;;;7400750;19;20001;-78
2023/06/07 02:36:09;;;;;;;3.97;0.80;;;21.30;62.80;;;;;;7402105;19;19994;-77
2023/06/07 02:38:38;;;;;;;2.92;0.77;;;21.30;62.80;;;;;;7401167;19;19922;-78
2023/06/07 02:41:07;;;;;;;3.72;0.60;;;21.30;62.80;;;;;;7401715;19;20296;-78
2023/06/07 02:43:36;;;;;;;2.05;0.75;;;21.20;62.80;;;;;;7400563;19;19929;-78
2023/06/07 02:46:08;;;;;;;2.40;0.88;;;21.20;62.80;;;;;;7401841;19;20302;-79
2023/06/07 02:48:37;;;;;;;2.17;0.63;;;21.20;62.80;;;;;;7401809;19;19924;-78
2023/06/07 02:51:11;;;;;;;2.67;0.88;;;21.20;62.90;;;;;;7400327;19;20333;-78
2023/06/07 02:53:40;;;;;;;2.92;0.77;;;21.20;62.90;;;;;;7402197;19;19947;-79
2023/06/07 02:56:10;;;;;;;2.80;0.93;;;21.20;62.90;;;;;;7399398;19;19924;-78
2023/06/07 02:58:39;;;;;;;3.60;0.98;;;21.20;62.90;;;;;;7403102;19;19922;-79
2023/06/07 03:01:11;;;;;;;1.80;0.77;;;21.20;62.90;;;;;;7402943;19;19946;-79
2023/06/07 03:03:40;;;;;;;2.78;0.65;;;21.20;63.40;;;;;;7404236;19;19951;-79
2023/06/07 03:06:09;;;;;;;2.50;0.82;;;21.30;62.90;;;;;;7400793;19;20275;-79
2023/06/07 03:08:38;;;;;;;2.17;0.70;;;21.20;62.90;;;;;;7402563;19;19982;-78
2023/06/07 03:11:07;;;;;;;2.40;0.73;;;21.20;62.90;;;;;;7402445;19;19926;-79
2023/06/07 03:13:36;;;;;;;2.25;0.75;;;21.20;62.90;;;;;;7402488;19;19929;-78
2023/06/07 03:16:06;;;;;;;2.70;0.65;;;21.20;62.90;;;;;;7401378;19;20008;-78
2023/06/07 03:18:37;;;;;;;1.90;0.85;;;21.20;62.90;;;;;;7402493;19;19914;-78
2023/06/07 03:21:08;;;;;;;2.63;0.73;;;21.20;62.90;;;;;;7401350;19;19925;-78
2023/06/07 03:23:36;;;;;;;2.80;0.82;;;21.20;62.90;;;;;;7401064;19;19926;-78
2023/06/07 03:26:07;;;;;;;2.28;0.80;;;21.20;62.90;;;;;;7402548;19;19923;-78
2023/06/07 03:28:36;;;;;;;1.85;1.02;;;21.20;62.90;;;;;;7402011;19;19922;-78
2023/06/07 03:31:05;;;;;;;1.70;0.70;;;21.20;63.00;;;;;;7403059;19;20321;-78
2023/06/07 03:33:36;;;;;;;2.90;0.70;;;21.10;62.90;;;;;;7402267;19;20348;-79
2023/06/07 03:36:07;;;;;;;2.50;0.85;;;21.20;63.00;;;;;;7401655;19;19982;-79
2023/06/07 03:38:36;;;;;;;1.70;0.73;;;21.20;63.00;;;;;;7402147;19;20355;-78
2023/06/07 03:41:05;;;;;;;3.67;0.70;;;21.20;63.00;;;;;;7403727;19;19946;-78
2023/06/07 03:43:34;;;;;;;2.72;0.52;;;21.20;63.10;;;;;;7400209;19;19936;-79
2023/06/07 03:46:03;;;;;;;2.55;0.93;;;21.10;63.00;;;;;;7401708;19;19918;-79
2023/06/07 03:48:32;;;;;;;1.50;0.50;;;21.20;63.00;;;;;;7402141;19;19926;-79
2023/06/07 03:51:03;;;;;;;2.03;0.75;;;21.20;63.00;;;;;;7400488;19;19923;-78
2023/06/07 03:53:33;;;;;;;2.05;0.65;;;21.10;63.00;;;;;;7401672;19;19931;-79
2023/06/07 03:56:02;;;;;;;2.00;0.50;;;21.20;63.00;;;;;;7402586;19;19965;-78
2023/06/07 03:58:31;;;;;;;2.47;0.60;;;21.20;63.10;;;;;;7401082;19;19926;-78
2023/06/07 04:01:00;;;;;;;1.92;0.70;;;21.10;63.00;;;;;;7398009;19;19947;-79
2023/06/07 04:03:30;;;;;;;1.63;0.57;;;21.10;63.10;;;;;;7401255;19;19923;-79
2023/06/07 04:05:59;;;;;;;3.45;0.60;;;21.20;63.10;;;;;;7398539;19;19922;-78
2023/06/07 04:08:31;;;;;;;4.18;0.60;;;21.10;63.10;;;;;;7395948;19;19926;-78
2023/06/07 04:11:00;;;;;;;1.77;0.88;;;21.10;63.10;;;;;;7400402;19;19922;-78
2023/06/07 04:13:29;;;;;;;2.20;0.57;;;21.20;63.10;;;;;;7401374;19;20175;-78
2023/06/07 04:15:59;;;;;;;1.55;0.52;;;21.10;63.00;;;;;;7399085;19;19927;-79
2023/06/07 04:18:28;;;;;;;2.13;0.57;;;21.20;63.10;;;;;;7402296;19;19943;-78
2023/06/07 04:20:57;;;;;;;1.48;0.63;;;21.10;63.10;;;;;;7399818;19;19925;-79
2023/06/07 04:23:26;;;;;;;2.95;0.50;;;21.20;63.10;;;;;;7400246;19;19926;-78
2023/06/07 04:25:59;;;;;;;1.45;0.60;;;21.10;63.10;;;;;;7402414;19;20087;-79
2023/06/07 04:28:30;;;;;;;3.17;0.70;;;21.10;63.10;;;;;;7401285;19;19936;-78
2023/06/07 04:30:59;;;;;;;2.35;0.65;;;21.10;63.10;;;;;;7397805;19;19922;-79
2023/06/07 04:33:28;;;;;;;;;;;21.10;63.10;;;;;;7403961;19;19970;-78
2023/06/07 04:35:57;;;;;;;2.47;0.75;;;21.10;63.10;;;;;;7400908;19;20644;-79
2023/06/07 04:38:29;;;;;;;2.13;0.70;;;21.10;63.20;;;;;;7400410;19;20320;-79
2023/06/07 04:41:06;;;;;;;2.40;0.82;;;21.10;63.20;;;;;;7400052;19;20292;-79
2023/06/07 04:43:37;;;;;;;1.60;0.55;;;21.10;63.10;;;;;;7400305;19;19914;-79
2023/06/07 04:46:06;;;;;;;1.80;0.55;;;21.10;63.20;;;;;;7401833;19;19926;-79
2023/06/07 04:48:40;;;;;;;2.25;1.00;;;21.10;63.10;;;;;;7400738;19;20337;-79
2023/06/07 04:51:09;;;;;;;2.25;0.75;;;21.10;63.10;;;;;;7399433;19;19922;-80
2023/06/07 04:53:39;;;;;;;1.80;0.50;;;21.10;63.10;;;;;;7401028;19;19918;-80
2023/06/07 04:56:11;;;;;;;1.83;0.50;;;21.20;63.10;;;;;;7406355;19;20340;-79
2023/06/07 04:58:40;;;;;;;2.15;0.85;;;21.20;63.20;;;;;;7399802;19;20365;-79
2023/06/07 05:01:10;;;;;;;2.15;0.40;;;21.10;63.10;;;;;;7401010;19;20420;-79
2023/06/07 05:03:41;;;;;;;2.00;0.77;;;21.10;63.10;;;;;;7400261;19;19922;-79
2023/06/07 05:06:11;;;;;;;1.55;0.57;;;21.10;63.10;;;;;;7401682;19;19927;-79
2023/06/07 05:08:40;;;;;;;2.60;0.80;;;21.10;63.20;;;;;;7403998;19;19983;-78
2023/06/07 05:11:11;;;;;;;2.80;0.77;;;21.20;63.20;;;;;;7401648;19;19922;-79
2023/06/07 05:13:40;;;;;;;2.70;0.68;;;21.20;63.10;;;;;;7399007;19;19939;-79
2023/06/07 05:16:11;;;;;;;1.83;0.52;;;21.10;63.10;;;;;;7400582;19;19922;-79
2023/06/07 05:18:42;;;;;;;2.15;0.70;;;21.10;63.10;;;;;;7398070;19;19982;-79
2023/06/07 05:21:11;;;;;;;1.75;0.50;;;21.20;63.10;;;;;;7402320;19;19927;-79
2023/06/07 05:23:41;;;;;;;2.72;0.70;;;21.20;63.10;;;;;;7403579;19;19947;-79
2023/06/07 05:26:13;;;;;;;1.83;0.63;;;21.20;63.10;;;;;;7407170;19;19926;-81
2023/06/07 05:28:42;;;;;;;3.03;1.48;;;21.20;63.10;;;;;;7403978;19;20305;-80
2023/06/07 05:31:12;;;;;;;3.05;0.60;;;21.20;63.10;;;;;;7402426;19;20426;-80
2023/06/07 05:33:44;;;;;;;3.65;0.80;;;21.20;63.10;;;;;;7405142;19;19927;-81
2023/06/07 05:36:14;;;;;;;1.90;0.70;;;21.30;63.20;;;;;;7397332;19;19942;-79
2023/06/07 05:46:44;;;;;;;2.22;0.80;;;21.30;63.30;;;;;;7355239;19;19921;-73
2023/06/07 05:49:18;;;;;;;2.70;0.68;;;21.20;63.50;;;;;;7400158;19;19922;-75
2023/06/07 05:51:49;;;;;;;3.88;0.85;;;21.20;63.70;;;;;;7404105;19;20290;-77
2023/06/07 05:54:18;;;;;;;1.65;0.50;;;21.30;63.80;;;;;;7375831;19;19982;-75
2023/06/07 05:56:47;;;;;;;1.60;0.47;;;21.30;63.70;;;;;;7402100;19;19919;-73
2023/06/07 05:59:16;;;;;;;2.00;0.52;;;21.20;63.70;;;;;;7404377;19;19926;-73
2023/06/07 06:01:48;;;;;;;2.45;0.40;;;21.30;63.80;;;;;;7404772;19;19998;-73
2023/06/07 06:04:18;;;;;;;1.85;0.50;;;21.30;63.80;;;;;;7404128;19;19926;-73
2023/06/07 06:06:48;;;;;;;1.67;0.52;;;21.30;63.80;;;;;;7405262;19;19947;-73
2023/06/07 06:09:17;;;;;;;2.13;0.60;;;21.30;63.70;;;;;;7402199;19;19918;-73
2023/06/07 06:11:46;;;;;;;2.03;0.50;;;21.30;63.70;;;;;;7405055;19;19924;-72
2023/06/07 06:14:15;;;;;;;1.80;0.50;;;21.30;63.60;;;;;;7402944;19;19918;-72
2023/06/07 06:16:44;;;;;;;3.10;0.70;;;21.30;63.60;;;;;;7404825;19;19955;-73
2023/06/07 06:19:15;;;;;;;1.92;0.63;;;21.40;63.60;;;;;;7405402;19;19926;-74
2023/06/07 06:21:44;;;;;;;1.98;0.70;;;21.40;63.50;;;;;;7406904;19;19998;-73
2023/06/07 06:24:14;;;;;;;2.92;0.70;;;21.40;63.50;;;;;;7404842;19;19980;-74
2023/06/07 06:26:43;;;;;;;1.90;0.65;;;21.40;63.50;;;;;;7405015;19;19994;-74
2023/06/07 06:29:12;;;;;;;2.70;0.52;;;21.40;63.40;;;;;;7405433;19;20720;-74
2023/06/07 06:31:43;;;;;;;2.50;0.60;;;21.40;63.40;;;;;;7403163;19;20590;-74
2023/06/07 06:34:15;;;;;;;2.58;0.90;;;21.40;63.40;;;;;;7405827;19;19994;-73
2023/06/07 06:36:44;;;;;;;2.15;0.73;;;21.50;63.40;;;;;;7404308;19;20352;-74
2023/06/07 06:39:13;;;;;;;2.20;0.68;;;21.50;63.40;;;;;;7404806;19;19922;-74
2023/06/07 06:41:43;;;;;;;2.08;0.30;;;21.50;63.30;;;;;;7405289;19;20593;-74
2023/06/07 06:44:13;;;;;;;2.25;0.47;;;21.50;63.90;;;;;;7405267;19;19966;-74
2023/06/07 06:46:41;;;;;;;1.80;0.80;;;21.50;63.30;;;;;;7404100;19;20320;-74
2023/06/07 06:49:10;;;;;;;2.20;0.80;;;21.60;63.30;;;;;;7404609;19;19922;-74
2023/06/07 06:51:42;;;;;;;2.13;0.80;;;21.60;63.20;;;;;;7405105;19;19990;-74
2023/06/07 06:54:11;;;;;;;1.92;0.40;;;21.60;63.10;;;;;;7404258;19;19974;-74
2023/06/07 06:56:40;;;;;;;1.95;0.32;;;21.60;63.10;;;;;;7405774;19;19930;-74
2023/06/07 06:59:10;;;;;;;2.00;0.63;;;21.60;63.00;;;;;;7404387;19;19922;-74
2023/06/07 07:01:48;;;;;;;1.85;0.60;;;21.70;63.10;;;;;;7403456;19;19923;-74
2023/06/07 07:04:18;;;;;;;1.60;0.60;;;21.70;63.10;;;;;;7405028;19;19919;-74
2023/06/07 07:06:49;;;;;;;2.33;0.60;;;21.70;63.00;;;;;;7403390;19;19926;-74
2023/06/07 07:09:18;;;;;;;1.70;0.60;;;21.70;63.00;;;;;;7404525;19;19951;-74
2023/06/07 07:11:47;;;;;;;2.10;0.50;;;21.70;62.90;;;;;;7403755;19;19923;-74
2023/06/07 07:14:16;;;;;;;1.70;0.63;;;21.70;62.80;;;;;;7402040;19;19918;-74
2023/06/07 07:16:45;;;;;;;2.53;0.52;;;21.80;62.80;;;;;;7401917;19;20308;-74
2023/06/07 07:19:14;;;;;;;2.45;0.55;;;21.80;62.80;;;;;;7403008;19;19944;-74
2023/06/07 07:21:44;;;;;;;1.75;0.77;;;21.80;62.80;;;;;;7402070;19;19981;-74
2023/06/07 07:24:17;;;;;;;2.55;0.50;;;21.80;62.80;;;;;;7402562;19;19922;-74
2023/06/07 07:26:46;;;;;;;2.65;0.55;;;21.80;62.80;;;;;;7401529;19;19922;-74
2023/06/07 07:29:15;;;;;;;2.22;0.93;;;21.80;62.80;;;;;;7398874;19;19923;-74
2023/06/07 07:31:44;;;;;;;2.47;0.65;;;21.80;62.80;;;;;;7401107;19;19925;-73
2023/06/07 07:34:13;;;;;;;2.05;0.57;;;21.80;62.70;;;;;;7401268;19;19923;-74
2023/06/07 07:36:43;;;;;;;2.08;0.60;;;21.90;62.70;;;;;;7399050;19;19991;-74
2023/06/07 07:39:12;;;;;;;2.00;0.70;;;21.90;62.70;;;;;;7402782;19;20343;-74
2023/06/07 07:41:45;;;;;;;2.40;0.82;;;21.90;62.70;;;;;;7401773;19;19923;-74
2023/06/07 07:44:14;;;;;;;1.88;0.55;;;21.90;62.60;;;;;;7401382;19;19914;-74
2023/06/07 07:46:43;;;;;;;1.80;0.40;;;21.90;62.70;;;;;;7398007;19;20266;-74
2023/06/07 07:49:12;;;;;;;1.73;0.40;;;21.90;62.60;;;;;;7404046;19;19974;-75
2023/06/07 07:51:41;;;;;;;1.73;0.50;;;22.00;62.60;;;;;;7396599;19;19932;-74
2023/06/07 07:54:10;;;;;;;1.60;0.50;;;21.90;62.60;;;;;;7401373;19;19918;-74
2023/06/07 07:56:40;;;;;;;2.53;0.60;;;22.00;62.60;;;;;;7396014;19;19943;-74
2023/06/07 07:59:12;;;;;;;;;;;21.90;62.60;;;;;;7403605;19;19929;-74
2023/06/07 08:01:41;;;;;;;1.38;0.50;;;22.00;62.60;;;;;;7399025;19;19926;-74
2023/06/07 08:04:09;;;;;;;2.30;0.50;;;22.00;62.60;;;;;;7402170;19;20466;-73
2023/06/07 08:06:38;;;;;;;1.35;0.40;;;22.00;62.60;;;;;;7399001;19;19927;-74
2023/06/07 08:09:09;;;;;;;2.97;0.52;;;22.00;62.60;;;;;;7401267;19;19921;-74
2023/06/07 08:11:38;;;;;;;2.25;0.63;;;22.00;62.60;;;;;;7396935;19;20357;-74
2023/06/07 08:14:07;;;;;;;1.98;0.60;;;22.00;62.60;;;;;;7400919;19;19919;-74
2023/06/07 08:16:39;;;;;;;1.83;0.75;;;22.00;62.50;;;;;;7400936;19;20014;-74
2023/06/07 08:19:10;;;;;;;2.03;0.60;;;22.00;62.50;;;;;;7401807;19;19929;-74
2023/06/07 08:21:43;;;;;;;2.03;0.50;;;22.00;62.50;;;;;;7400517;19;20073;-74
2023/06/07 08:24:12;;;;;;;1.55;0.73;;;22.00;62.50;;;;;;7399351;19;19946;-74
2023/06/07 08:26:44;;;;;;;1.52;0.40;;;22.00;62.50;;;;;;7401374;19;20005;-74
2023/06/07 08:29:13;;;;;;;1.83;0.40;;;22.00;62.60;;;;;;7399037;19;20296;-74
2023/06/07 08:31:45;;;;;;;2.38;0.38;;;22.00;62.60;;;;;;7399342;19;19926;-74
2023/06/07 08:34:14;;;;;;;2.05;0.85;;;22.00;62.50;;;;;;7400040;19;20403;-74
2023/06/07 08:36:44;;;;;;;2.85;0.90;;;22.00;62.60;;;;;;7400793;19;19981;-74
2023/06/07 08:39:13;;;;;;;1.67;0.40;;;22.00;62.50;;;;;;7400312;19;19943;-73
2023/06/07 08:41:42;;;;;;;1.92;0.63;;;22.00;62.60;;;;;;7400360;19;19922;-74
2023/06/07 08:44:11;;;;;;;1.67;0.50;;;22.00;62.50;;;;;;7398445;19;19935;-74
2023/06/07 08:46:40;;;;;;;3.05;0.47;;;22.00;62.50;;;;;;7395748;19;20358;-74
2023/06/07 08:49:13;;;;;;;1.98;0.50;;;22.00;62.50;;;;;;7400183;19;20331;-75
2023/06/07 08:51:45;;;;;;;1.83;0.50;;;22.10;62.60;;;;;;7397250;19;19933;-74
2023/06/07 08:54:19;;;;;;;1.25;0.40;;;22.10;62.60;;;;;;7398230;19;20277;-74
2023/06/07 08:56:49;;;;;;;1.90;0.50;;;22.10;62.60;;;;;;7397845;19;19937;-74
2023/06/07 08:59:20;;;;;;;1.80;0.50;;;22.10;62.60;;;;;;7396260;19;19958;-74
2023/06/07 09:01:50;;;;;;;2.30;0.60;;;22.10;62.60;;;;;;7400322;19;20335;-74
2023/06/07 09:04:21;;;;;;;2.47;0.50;;;22.10;62.60;;;;;;7398878;19;19982;-74
2023/06/07 09:06:51;;;;;;;1.50;0.38;;;22.10;62.50;;;;;;7397772;19;19986;-74
2023/06/07 09:09:20;;;;;;;2.08;0.50;;;22.10;62.50;;;;;;7399015;19;19922;-74
2023/06/07 09:11:54;;;;;;;2.03;0.63;;;22.20;62.60;;;;;;7398554;19;20350;-74
2023/06/07 09:14:26;;;;;;;1.80;0.50;;;22.20;62.50;;;;;;7398738;19;20281;-74
2023/06/07 09:16:56;;;;;;;1.85;0.43;;;22.10;62.50;;;;;;7397170;19;19951;-74
2023/06/07 09:19:41;;;;;;;2.80;0.73;;;22.20;62.50;;;;;;7398802;19;20336;-75
2023/06/07 09:22:13;;;;;;;1.73;0.32;;;22.20;62.50;;;;;;7399606;19;19933;-74
2023/06/07 09:24:47;;;;;;;1.42;0.45;;;22.20;62.50;;;;;;7398313;19;19974;-74
2023/06/07 09:27:29;;;;;;;1.83;0.40;;;22.20;62.50;;;;;;7398269;19;19931;-74
2023/06/07 09:30:07;;;;;;;2.30;0.63;;;22.20;62.50;;;;;;7398279;19;19991;-74
2023/06/07 09:32:39;;;;;;;1.75;0.50;;;22.20;62.50;;;;;;7400091;19;20348;-74
2023/06/07 09:35:17;;;;;;;2.28;0.70;;;22.30;62.60;;;;;;7397132;19;19952;-74
2023/06/07 09:37:48;;;;;;;1.75;0.30;;;22.20;62.50;;;;;;7395832;19;19954;-74
2023/06/07 09:40:18;;;;;;;1.52;0.40;;;22.30;62.50;;;;;;7394987;19;20359;-74
2023/06/07 09:42:57;;;;;;;1.23;0.30;;;22.30;62.50;;;;;;7400559;19;20457;-74
2023/06/07 09:45:26;;;;;;;2.83;0.52;;;22.30;62.50;;;;;;7398227;19;19946;-73
2023/06/07 09:48:04;;;;;;;1.50;0.60;;;22.30;62.50;;;;;;7399250;19;19922;-74
2023/06/07 09:50:36;;;;;;;1.42;0.35;;;22.40;62.50;;;;;;7398279;19;20697;-74
2023/06/07 09:53:05;;;;;;;1.30;0.35;;;22.40;62.50;;;;;;7398571;19;19925;-73
2023/06/07 09:55:35;;;;;;;2.60;0.32;;;22.40;62.50;;;;;;7399915;19;19939;-74
2023/06/07 09:58:19;;;;;;;1.67;0.50;;;22.40;62.50;;;;;;7388997;19;19928;-74
2023/06/07 10:00:48;;;;;;;1.77;0.50;;;22.40;62.40;;;;;;7396806;19;19923;-74
2023/06/07 10:03:18;;;;;;;1.92;0.50;;;22.40;62.40;;;;;;7396817;19;19919;-74
2023/06/07 10:05:50;;;;;;;1.55;0.30;;;22.50;62.50;;;;;;7401920;19;19935;-74
2023/06/07 10:08:19;;;;;;;1.40;0.40;;;22.50;62.50;;;;;;7404743;19;19925;-74
2023/06/07 10:10:52;;;;;;;1.80;0.30;;;22.50;62.40;;;;;;7402844;19;19938;-74
2023/06/07 10:13:22;;;;;;;2.00;0.55;;;22.50;62.40;;;;;;7404827;19;20001;-74
2023/06/07 10:15:51;;;;;;;2.22;0.45;;;22.50;62.40;;;;;;7402569;19;20335;-74
2023/06/07 10:18:24;;;;;;;1.55;0.60;;;22.60;62.40;;;;;;7404966;19;20263;-74
2023/06/07 10:21:00;;;;;;;1.60;0.50;;;22.60;62.40;;;;;;7404137;19;19918;-74
2023/06/07 10:23:34;;;;;;;1.30;0.43;;;22.60;62.50;;;;;;7402872;19;19963;-74
2023/06/07 10:26:09;;;;;;;1.55;0.57;;;22.60;62.40;;;;;;7402822;19;19934;-75
2023/06/07 10:28:45;;;;;;;2.17;0.40;;;22.60;62.40;;;;;;7404078;19;19978;-75
2023/06/07 10:31:18;;;;;;;1.48;0.75;;;22.60;62.40;;;;;;7403625;19;19930;-75
2023/06/07 10:33:48;;;;;;;2.15;0.40;;;22.70;62.50;;;;;;7403669;19;19919;-75
2023/06/07 10:36:23;;;;;;;1.60;0.47;;;22.70;62.40;;;;;;7404400;19;19925;-75
2023/06/07 10:38:53;;;;;;;2.33;0.47;;;22.70;62.40;;;;;;7402826;19;20356;-75
2023/06/07 10:41:22;;;;;;;1.10;0.32;;;22.70;62.40;;;;;;7402823;19;19914;-74
2023/06/07 10:43:51;;;;;;;1.70;0.40;;;22.80;62.40;;;;;;7403490;19;20329;-74
2023/06/07 10:46:23;;;;;;;1.98;0.52;;;22.80;62.30;;;;;;7402715;19;19918;-74
2023/06/07 10:48:52;;;;;;;1.95;0.40;;;22.80;62.40;;;;;;7403321;19;19929;-75
2023/06/07 10:51:58;;;;;;;;;;;22.80;62.30;;;;;;7403271;19;19924;-74
2023/06/07 10:54:34;;;;;;;0.90;0.28;;;22.80;62.30;;;;;;7402054;19;19986;-74
2023/06/07 10:57:04;;;;;;;1.23;0.40;;;22.90;62.40;;;;;;7404616;19;19926;-74
2023/06/07 10:59:33;;;;;;;0.95;0.30;;;22.90;62.30;;;;;;7403964;19;19950;-73
2023/06/07 11:02:26;;;;;;;1.88;0.32;;;22.90;62.30;;;;;;7404895;19;20391;-74
2023/06/07 11:04:57;;;;;;;1.45;0.60;;;22.90;62.30;;;;;;7400964;19;19918;-74
2023/06/07 11:07:30;;;;;;;1.77;0.60;;;22.90;62.30;;;;;;7403263;19;19933;-74
2023/06/07 11:10:29;;;;;;;1.50;0.40;;;23.00;62.30;;;;;;7403669;19;19918;-74
2023/06/07 11:13:00;;;;;;;1.40;0.70;;;23.00;62.30;;;;;;7399764;19;19956;-74
2023/06/07 11:15:38;;;;;;;1.30;0.55;;;23.00;62.30;;;;;;7402764;19;19922;-74
2023/06/07 11:18:08;;;;;;;1.98;0.45;;;23.10;62.30;;;;;;7401374;19;19950;-74
2023/06/07 11:20:51;;;;;;;1.55;0.43;;;23.10;62.30;;;;;;7401970;19;19919;-74
2023/06/07 11:23:30;;;;;;;1.90;0.50;;;23.10;62.30;;;;;;7399603;19;19915;-76
2023/06/07 11:26:02;;;;;;;2.30;0.60;;;23.10;62.30;;;;;;7402390;19;19975;-76
2023/06/07 11:28:32;;;;;;;2.75;0.50;;;23.10;62.60;;;;;;7394327;19;19922;-74
2023/06/07 11:31:03;;;;;;;1.98;0.50;;;23.20;62.60;;;;;;7397641;19;19935;-73
2023/06/07 11:33:33;;;;;;;1.40;0.40;;;23.20;62.40;;;;;;7398117;19;19922;-73
2023/06/07 11:36:03;;;;;;;1.67;0.43;;;23.20;62.40;;;;;;7399795;19;19990;-73
2023/06/07 11:38:37;;;;;;;1.40;0.50;;;23.20;62.40;;;;;;7398894;19;19915;-76
2023/06/07 11:41:07;;;;;;;1.75;0.70;;;23.30;62.50;;;;;;7399013;19;19978;-74
2023/06/07 11:43:36;;;;;;;1.40;0.32;;;23.30;62.50;;;;;;7398061;19;19923;-74
2023/06/07 11:46:06;;;;;;;1.25;0.35;;;23.40;62.60;;;;;;7400951;19;19934;-74
2023/06/07 11:48:35;;;;;;;1.95;0.63;;;23.30;62.50;;;;;;7400342;19;20340;-75
2023/06/07 11:51:04;;;;;;;1.83;0.60;;;23.40;62.50;;;;;;7394532;19;19929;-75
2023/06/07 11:53:36;;;;;;;;;;;23.50;62.50;;;;;;7402066;19;19918;-76
2023/06/07 11:56:06;;;;;;;1.50;0.60;;;23.40;62.50;;;;;;7397879;19;20442;-75
2023/06/07 11:58:35;;;;;;;1.50;0.50;;;23.50;62.50;;;;;;7398676;19;19918;-77
2023/06/07 12:01:05;;;;;;;1.88;0.40;;;23.50;62.50;;;;;;7399430;19;19958;-77
2023/06/07 12:03:39;;;;;;;1.33;0.50;;;23.50;62.50;;;;;;7398600;19;19947;-77
2023/06/07 12:06:08;;;;;;;1.33;0.50;;;23.50;62.50;;;;;;7395178;19;19977;-77
2023/06/07 12:08:40;;;;;;;1.55;0.50;;;23.60;62.50;;;;;;7399862;19;19937;-75
2023/06/07 12:11:09;;;;;;;2.13;0.43;;;23.60;62.60;;;;;;7398778;19;19951;-74
2023/06/07 12:13:40;;;;;;;;;;;23.60;62.50;;;;;;7400837;19;19947;-77
2023/06/07 12:16:10;;;;;;;2.10;0.60;;;23.60;62.40;;;;;;7398429;19;20260;-77
2023/06/07 12:18:39;;;;;;;1.63;0.63;;;23.70;62.40;;;;;;7401435;19;19918;-76
2023/06/07 12:21:09;;;;;;;1.65;0.50;;;23.70;62.50;;;;;;7396104;19;19934;-77
2023/06/07 12:23:50;;;;;;;1.30;0.40;;;23.80;62.50;;;;;;7400786;19;19926;-73
2023/06/07 12:26:22;;;;;;;1.20;0.50;;;23.70;62.40;;;;;;7386629;19;19919;-72
2023/06/07 12:28:52;;;;;;;1.80;0.43;;;23.80;62.50;;;;;;7393092;19;19943;-71
2023/06/07 12:31:25;;;;;;;2.00;0.45;;;23.80;62.40;;;;;;7399077;19;19970;-73
2023/06/07 12:33:58;;;;;;;1.92;0.88;;;23.90;62.40;;;;;;7399699;19;19922;-72
2023/06/07 12:36:33;;;;;;;1.67;0.50;;;23.90;62.40;;;;;;7386605;19;19930;-72
2023/06/07 12:39:05;;;;;;;2.00;0.75;;;23.90;62.40;;;;;;7394033;19;19922;-72
2023/06/07 12:41:35;;;;;;;1.90;0.65;;;23.90;63.00;;;;;;7383836;19;19919;-74
2023/06/07 12:44:05;;;;;;;;;;;24.00;62.40;;;;;;7400357;19;19926;-75
2023/06/07 12:46:35;;;;;;;1.85;0.60;;;24.00;62.40;;;;;;7394472;19;19981;-76
2023/06/07 12:49:05;;;;;;;1.35;0.50;;;24.00;62.40;;;;;;7392168;19;19929;-73
2023/06/07 12:51:34;;;;;;;2.33;0.50;;;24.00;62.30;;;;;;7394394;19;20595;-72
2023/06/07 12:54:10;;;;;;;1.42;0.47;;;24.10;62.40;;;;;;7392252;19;19927;-73
2023/06/07 12:56:39;;;;;;;;;;;24.10;62.40;;;;;;7395837;19;19922;-77
2023/06/07 12:59:08;;;;;;;2.83;0.60;;;24.10;62.30;;;;;;7391293;19;19974;-74
2023/06/07 13:01:36;;;;;;;2.20;0.57;;;24.20;62.30;;;;;;7390677;19;19974;-74
2023/06/07 13:04:06;;;;;;;3.13;0.90;;;24.20;62.30;;;;;;7399454;19;19933;-73
2023/06/07 13:06:36;;;;;;;1.05;0.60;;;24.20;62.30;;;;;;7390137;19;19929;-74
2023/06/07 13:09:10;;;;;;;;;;;24.20;62.20;;;;;;7395173;19;19935;-73
2023/06/07 13:11:41;;;;;;;2.38;0.50;;;24.30;62.10;;;;;;7392541;19;20875;-73
2023/06/07 13:14:10;;;;;;;2.83;0.70;;;24.30;62.30;;;;;;7393857;19;19944;-75
2023/06/07 13:16:40;;;;;;;1.80;0.45;;;24.30;62.10;;;;;;7390893;19;19922;-77